Deseronto, Canada
Current Conditions -  °F | °C
As of 12:00 PM on Thursday 30 Oct 2014 (Local Time) from CYGK Reporting Station
Broken Clouds Broken Clouds  
Wind Chill: 40°   Ceiling: 2900
Heat Index: 45°   Visibility: 15mi
Dew Point: 34°   Wind: 8mph
Humidity: 66%   Direction: 270°W
Pressure: 30.04"   Gusts: NA
Location:  44.2°N, 77.03°W
Report Text: CYGK 301600Z 27007KT 260V010 15SM BKN029 07/01 A3004 RMK SC7 SLP176
Loading
Personal Weather Stations






























Interactive Weather Map
Tropical Storm Tracking
New forecast layout! Learn more

10-Day Weather Forecast

Advertisements
Track Severe Weather on mobile